createdAt,value
2022-12-15T00:02:27.797Z,14.65
2022-12-15T00:05:14.001Z,15.32
2022-12-15T00:08:00.235Z,15.27
2022-12-15T00:10:46.099Z,14.55
2022-12-15T00:13:33.003Z,14.85
2022-12-15T00:16:19.503Z,13.55
2022-12-15T00:19:07.212Z,14.02
2022-12-15T00:21:53.155Z,13.07
2022-12-15T00:24:38.488Z,14.20
2022-12-15T00:27:24.559Z,13.68
2022-12-15T00:30:09.964Z,12.85
2022-12-15T00:32:55.731Z,14.07
2022-12-15T00:35:42.394Z,13.73
2022-12-15T00:38:30.432Z,14.30
2022-12-15T00:41:00.261Z,14.88
2022-12-15T00:43:29.112Z,13.35
2022-12-15T00:46:15.263Z,14.35
2022-12-15T00:48:43.940Z,12.85
2022-12-15T00:51:13.486Z,14.15
2022-12-15T00:53:59.858Z,14.73
2022-12-15T00:56:46.189Z,14.57
2022-12-15T00:59:35.456Z,13.73
2022-12-15T01:02:24.488Z,14.10
2022-12-15T01:05:10.757Z,14.23
2022-12-15T01:07:58.926Z,12.95
2022-12-15T01:10:47.741Z,13.55
2022-12-15T01:13:34.057Z,13.07
2022-12-15T01:16:19.995Z,14.63
2022-12-15T01:19:06.078Z,13.90
2022-12-15T01:21:35.246Z,14.80
2022-12-15T01:24:05.620Z,14.25
2022-12-15T01:26:35.049Z,13.95
2022-12-15T01:29:03.373Z,14.23
2022-12-15T01:31:32.192Z,13.27
2022-12-15T01:34:01.047Z,13.55
2022-12-15T01:36:29.475Z,13.68
2022-12-15T01:38:57.968Z,12.15
2022-12-15T01:41:27.273Z,13.75
2022-12-15T01:43:55.759Z,13.85
2022-12-15T01:46:26.067Z,13.57
2022-12-15T01:49:01.542Z,12.50
2022-12-15T01:51:34.733Z,13.73
2022-12-15T01:54:07.828Z,13.15
2022-12-15T01:56:41.877Z,13.02
2022-12-15T01:59:15.448Z,13.77
2022-12-15T02:01:43.829Z,12.57
2022-12-15T02:04:20.712Z,13.40
2022-12-15T02:06:48.956Z,13.85
2022-12-15T02:09:18.783Z,13.95
2022-12-15T02:12:01.789Z,14.23
2022-12-15T02:14:40.588Z,15.95
2022-12-15T02:17:17.668Z,14.25
2022-12-15T02:20:26.035Z,14.65
2022-12-15T02:23:30.477Z,13.98
2022-12-15T02:26:20.363Z,14.80
2022-12-15T02:28:57.661Z,16.55
2022-12-15T02:31:49.738Z,14.68
2022-12-15T02:34:27.853Z,16.48
2022-12-15T02:37:00.652Z,16.02
2022-12-15T02:39:28.741Z,15.68
2022-12-15T02:41:57.173Z,14.80
2022-12-15T02:44:29.813Z,16.38
2022-12-15T02:47:24.498Z,16.65
2022-12-15T02:50:06.441Z,16.33
2022-12-15T02:52:51.948Z,16.00
2022-12-15T02:55:28.496Z,17.27
2022-12-15T02:58:02.352Z,16.02
2022-12-15T03:00:35.251Z,17.80
2022-12-15T03:03:05.336Z,17.73
2022-12-15T03:05:33.650Z,19.13
2022-12-15T03:08:02.364Z,17.55
2022-12-15T03:10:30.920Z,18.10
2022-12-15T03:13:00.014Z,19.05
2022-12-15T03:15:34.928Z,19.48
2022-12-15T03:18:04.996Z,19.20
2022-12-15T03:20:33.306Z,19.85
2022-12-15T03:23:01.866Z,20.40
2022-12-15T03:25:30.401Z,19.88
2022-12-15T03:27:58.540Z,20.33
2022-12-15T03:30:26.579Z,21.33
2022-12-15T03:32:54.606Z,20.42
2022-12-15T03:35:24.383Z,21.40
2022-12-15T03:37:52.634Z,20.88
2022-12-15T03:40:20.941Z,21.88
2022-12-15T03:42:49.179Z,21.00
2022-12-15T03:45:18.233Z,21.52
2022-12-15T03:47:47.524Z,22.58
2022-12-15T03:50:18.427Z,21.00
2022-12-15T03:52:52.355Z,21.25
2022-12-15T03:55:20.921Z,21.58
2022-12-15T03:57:49.297Z,23.10
2022-12-15T04:00:19.090Z,21.33
2022-12-15T04:02:47.579Z,22.38
2022-12-15T04:05:22.642Z,21.23
2022-12-15T04:07:52.208Z,23.35
2022-12-15T04:10:20.371Z,21.67
2022-12-15T04:12:48.315Z,22.60
2022-12-15T04:15:16.532Z,23.33
2022-12-15T04:17:44.490Z,23.75
2022-12-15T04:20:12.122Z,23.35
2022-12-15T04:22:40.964Z,21.15
2022-12-15T04:25:30.321Z,24.90
2022-12-15T04:28:16.198Z,24.63
2022-12-15T04:31:06.408Z,22.55
2022-12-15T04:33:52.682Z,23.83
2022-12-15T04:36:38.404Z,21.58
2022-12-15T04:39:24.177Z,23.30
2022-12-15T04:42:12.942Z,23.02
2022-12-15T04:44:58.268Z,23.13
2022-12-15T04:47:43.550Z,22.17
2022-12-15T04:50:29.023Z,23.95
2022-12-15T04:53:14.535Z,21.55
2022-12-15T04:55:59.724Z,23.45
2022-12-15T04:58:46.727Z,23.15
2022-12-15T05:01:32.148Z,23.75
2022-12-15T05:04:17.695Z,22.15
2022-12-15T05:07:03.176Z,24.27
2022-12-15T05:09:48.519Z,21.80
2022-12-15T05:12:33.774Z,22.88
2022-12-15T05:15:20.281Z,21.48
2022-12-15T05:18:05.644Z,21.80
2022-12-15T05:20:50.948Z,23.80
2022-12-15T05:23:36.760Z,23.05
2022-12-15T05:26:22.241Z,22.63
2022-12-15T05:29:07.427Z,24.02
2022-12-15T05:31:51.731Z,22.33
2022-12-15T05:34:21.349Z,22.40
2022-12-15T05:36:49.789Z,19.77
2022-12-15T05:39:17.804Z,20.83
2022-12-15T05:41:45.821Z,21.88
2022-12-15T05:44:13.823Z,19.17
2022-12-15T05:46:43.448Z,18.50
2022-12-15T05:49:14.839Z,20.30
2022-12-15T05:51:44.746Z,20.35
2022-12-15T05:54:15.304Z,20.77
2022-12-15T05:56:43.296Z,21.45
2022-12-15T05:59:11.268Z,21.73
2022-12-15T06:01:39.357Z,20.50
2022-12-15T06:04:08.779Z,19.83
2022-12-15T06:06:36.808Z,20.85
2022-12-15T06:09:04.960Z,19.48
2022-12-15T06:11:32.933Z,19.73
2022-12-15T06:14:00.889Z,23.58
2022-12-15T06:16:29.031Z,21.92
2022-12-15T06:18:59.156Z,20.60
2022-12-15T06:21:30.700Z,22.45
2022-12-15T06:23:59.095Z,21.63
2022-12-15T06:26:28.807Z,19.90
2022-12-15T06:28:58.128Z,20.85
2022-12-15T06:31:27.187Z,21.80
2022-12-15T06:34:01.258Z,19.35
2022-12-15T06:36:31.645Z,22.02
2022-12-15T06:39:00.480Z,21.05
2022-12-15T06:41:30.235Z,21.15
2022-12-15T06:43:58.393Z,22.60
2022-12-15T06:46:27.059Z,22.13
2022-12-15T06:48:55.263Z,22.50
2022-12-15T06:51:23.739Z,22.33
2022-12-15T06:53:54.121Z,23.50
2022-12-15T06:56:32.195Z,22.90
2022-12-15T06:59:01.551Z,22.35
2022-12-15T07:01:30.021Z,22.25
2022-12-15T07:04:00.114Z,21.75
2022-12-15T07:06:29.569Z,21.15
2022-12-15T07:08:59.069Z,21.67
2022-12-15T07:11:27.040Z,21.45
2022-12-15T07:13:55.680Z,23.20
2022-12-15T07:16:24.635Z,21.95
2022-12-15T07:18:52.592Z,22.77
2022-12-15T07:21:20.808Z,22.75
2022-12-15T07:23:57.269Z,23.17
2022-12-15T07:26:27.619Z,25.13
2022-12-15T07:28:55.979Z,22.67
2022-12-15T07:31:24.387Z,22.05
2022-12-15T07:33:54.481Z,21.00
2022-12-15T07:36:22.713Z,22.33
2022-12-15T07:38:51.553Z,23.55
2022-12-15T07:41:21.233Z,23.15
2022-12-15T07:43:50.560Z,23.23
2022-12-15T07:46:19.358Z,23.08
2022-12-15T07:48:50.344Z,23.67
2022-12-15T07:51:20.599Z,24.60
2022-12-15T07:53:50.166Z,24.65
2022-12-15T07:56:20.705Z,26.42
2022-12-15T07:58:50.237Z,22.85
2022-12-15T08:01:19.473Z,22.08
2022-12-15T08:03:48.152Z,22.02
2022-12-15T08:06:16.860Z,23.83
2022-12-15T08:08:50.692Z,23.10
2022-12-15T08:11:20.961Z,22.00
2022-12-15T08:14:10.361Z,22.58
2022-12-15T08:16:39.135Z,22.80
2022-12-15T08:19:08.378Z,22.15
2022-12-15T08:21:36.450Z,22.38
2022-12-15T08:24:05.013Z,23.60
2022-12-15T08:26:32.962Z,22.98
2022-12-15T08:29:40.465Z,22.08
2022-12-15T08:31:53.328Z,21.75
2022-12-15T08:34:21.734Z,22.70
2022-12-15T08:36:49.639Z,23.60
2022-12-15T08:39:26.760Z,26.05
2022-12-15T08:41:54.816Z,24.65
2022-12-15T08:44:24.306Z,24.15
2022-12-15T08:46:52.397Z,24.38
2022-12-15T08:49:22.416Z,25.40
2022-12-15T08:51:51.668Z,26.45
2022-12-15T08:54:20.547Z,25.70
2022-12-15T08:56:48.834Z,24.20
2022-12-15T08:59:17.051Z,28.83
2022-12-15T09:01:46.474Z,25.55
2022-12-15T09:04:15.305Z,25.05
2022-12-15T09:06:43.996Z,26.60
2022-12-15T09:09:16.571Z,25.35
2022-12-15T09:11:44.569Z,24.73
2022-12-15T09:14:12.639Z,25.02
2022-12-15T09:16:40.962Z,24.83
2022-12-15T09:19:11.273Z,24.30
2022-12-15T09:21:39.864Z,24.42
2022-12-15T09:24:08.204Z,23.95
2022-12-15T09:26:36.373Z,23.80
2022-12-15T09:29:04.417Z,22.50
2022-12-15T09:31:34.711Z,23.88
2022-12-15T09:34:03.771Z,24.27
2022-12-15T09:36:33.583Z,24.42
2022-12-15T09:39:03.067Z,24.23
2022-12-15T09:41:54.737Z,23.23
2022-12-15T09:44:41.536Z,22.55
2022-12-15T09:47:17.362Z,24.08
2022-12-15T09:49:54.067Z,23.20
2022-12-15T09:52:26.940Z,22.67
2022-12-15T09:54:55.239Z,24.30
2022-12-15T09:57:31.351Z,24.45
2022-12-15T10:00:09.986Z,24.23
2022-12-15T10:03:22.939Z,22.58
2022-12-15T10:06:20.122Z,22.90
2022-12-15T10:08:55.077Z,22.98
2022-12-15T10:11:41.467Z,23.10
2022-12-15T10:14:19.850Z,23.33
2022-12-15T10:16:59.624Z,23.00
2022-12-15T10:19:35.111Z,21.60
2022-12-15T10:22:03.225Z,22.98
2022-12-15T10:27:49.190Z,22.42
2022-12-15T10:30:17.721Z,28.42
2022-12-15T10:32:51.465Z,22.98
2022-12-15T10:35:22.722Z,24.05
2022-12-15T10:37:50.879Z,23.00
2022-12-15T10:40:42.637Z,21.88
2022-12-15T10:43:15.606Z,23.20
2022-12-15T10:45:43.770Z,23.48
2022-12-15T10:48:20.660Z,22.35
2022-12-15T10:50:50.107Z,24.35
2022-12-15T10:53:39.672Z,22.95
2022-12-15T10:56:09.502Z,21.73
2022-12-15T10:58:50.077Z,24.33
2022-12-15T11:01:20.726Z,22.98
2022-12-15T11:03:52.654Z,24.13
2022-12-15T11:06:22.819Z,21.50
2022-12-15T11:08:52.426Z,22.17
2022-12-15T11:11:50.828Z,22.05
2022-12-15T11:14:23.916Z,21.42
2022-12-15T11:16:55.797Z,20.77
2022-12-15T11:19:36.819Z,22.58
2022-12-15T11:22:13.811Z,22.98
2022-12-15T11:24:46.480Z,23.27
2022-12-15T11:27:24.032Z,22.50
2022-12-15T11:30:02.679Z,23.95
2022-12-15T11:32:36.015Z,22.58
2022-12-15T11:35:04.908Z,23.08
2022-12-15T11:37:44.238Z,21.20
2022-12-15T11:40:40.534Z,23.35
2022-12-15T11:43:35.604Z,23.00
2022-12-15T11:46:20.243Z,23.88
2022-12-15T11:49:13.091Z,21.63
2022-12-15T11:54:25.542Z,21.90
2022-12-15T11:57:00.681Z,23.20
2022-12-15T11:59:44.787Z,22.95
2022-12-15T12:03:04.451Z,23.70
2022-12-15T12:05:42.898Z,21.70
2022-12-15T12:08:25.621Z,22.48
2022-12-15T12:11:16.712Z,22.33
2022-12-15T12:14:00.888Z,23.80
2022-12-15T12:16:39.876Z,22.20
2022-12-15T12:19:12.121Z,23.08
2022-12-15T12:21:44.790Z,23.13
2022-12-15T12:24:19.994Z,23.60
2022-12-15T12:26:54.771Z,25.23
2022-12-15T12:29:29.973Z,23.10
2022-12-15T12:32:08.763Z,25.27
2022-12-15T12:34:51.152Z,26.25
2022-12-15T12:37:23.868Z,24.67
2022-12-15T12:42:26.191Z,25.33
2022-12-15T12:44:54.567Z,27.33
2022-12-15T12:47:29.089Z,27.52
2022-12-15T12:50:00.108Z,27.63
2022-12-15T12:52:31.124Z,26.38
2022-12-15T12:55:01.886Z,30.17
2022-12-15T12:57:41.297Z,28.88
2022-12-15T13:00:27.400Z,28.50
2022-12-15T13:03:17.437Z,28.67
2022-12-15T13:05:51.625Z,30.08
2022-12-15T13:08:52.735Z,29.95
2022-12-15T13:11:55.246Z,30.33
2022-12-15T13:14:30.491Z,31.50
2022-12-15T13:20:20.547Z,30.65
2022-12-15T13:22:48.815Z,31.50
2022-12-15T13:25:40.897Z,32.75
2022-12-15T13:28:31.223Z,31.58
2022-12-15T13:31:34.273Z,34.28
2022-12-15T13:34:22.110Z,33.70
2022-12-15T13:36:55.919Z,36.47
2022-12-15T13:39:52.163Z,34.40
2022-12-15T13:42:35.863Z,34.78
2022-12-15T13:45:39.784Z,35.40
2022-12-15T13:48:16.855Z,36.05
2022-12-15T13:50:53.295Z,34.70
2022-12-15T13:53:26.378Z,35.25
2022-12-15T13:56:04.729Z,36.80
2022-12-15T13:58:40.278Z,34.45
2022-12-15T14:01:20.922Z,35.25
2022-12-15T14:04:05.707Z,35.78
2022-12-15T14:06:39.049Z,35.13
2022-12-15T14:09:15.129Z,35.90
2022-12-15T14:11:55.273Z,37.17
2022-12-15T14:14:26.517Z,38.63
2022-12-15T14:16:58.846Z,37.20
2022-12-15T14:22:33.856Z,39.13
2022-12-15T14:25:20.820Z,35.22
2022-12-15T14:27:51.844Z,37.45
2022-12-15T14:30:38.631Z,35.15
2022-12-15T14:33:09.486Z,37.97
2022-12-15T14:35:41.505Z,46.95
2022-12-15T14:38:15.689Z,38.08
2022-12-15T14:40:50.896Z,35.17
2022-12-15T14:43:22.584Z,35.30
2022-12-15T14:45:55.688Z,36.10
2022-12-15T14:48:42.116Z,36.97
2022-12-15T14:51:13.378Z,38.03
2022-12-15T14:53:43.817Z,37.30
2022-12-15T14:56:30.080Z,50.13
2022-12-15T14:59:04.630Z,35.03
2022-12-15T15:01:40.013Z,47.00
2022-12-15T15:04:29.055Z,40.00
2022-12-15T15:06:59.884Z,39.80
2022-12-15T15:09:29.979Z,35.00
2022-12-15T15:12:03.554Z,39.60
2022-12-15T15:14:34.886Z,34.97
2022-12-15T15:17:09.403Z,37.05
2022-12-15T15:19:39.982Z,38.80
2022-12-15T15:22:24.274Z,35.67
2022-12-15T15:24:53.614Z,37.33
2022-12-15T15:27:29.326Z,37.97
2022-12-15T15:30:21.202Z,34.88
2022-12-15T15:32:54.460Z,32.60
2022-12-15T15:35:24.117Z,36.35
2022-12-15T15:37:54.107Z,38.45
2022-12-15T15:40:22.129Z,39.30
2022-12-15T15:42:51.925Z,38.78
2022-12-15T15:45:20.175Z,34.30
2022-12-15T15:47:50.963Z,37.47
2022-12-15T15:50:25.930Z,35.63
2022-12-15T15:52:54.200Z,33.90
2022-12-15T15:55:27.481Z,32.33
2022-12-15T15:57:56.997Z,36.63
2022-12-15T16:00:26.623Z,37.83
2022-12-15T16:02:54.748Z,35.55
2022-12-15T16:05:24.101Z,34.85
2022-12-15T16:07:52.052Z,35.05
2022-12-15T16:10:21.451Z,35.85
2022-12-15T16:12:51.901Z,34.55
2022-12-15T16:15:25.924Z,34.75
2022-12-15T16:17:54.595Z,35.47
2022-12-15T16:20:24.824Z,36.65
2022-12-15T16:22:56.506Z,35.22
2022-12-15T16:25:33.133Z,39.33
2022-12-15T16:28:14.093Z,38.42
2022-12-15T16:30:44.410Z,35.53
2022-12-15T16:33:13.395Z,35.60
2022-12-15T16:35:42.708Z,38.15
2022-12-15T16:38:16.757Z,39.17
2022-12-15T16:40:44.788Z,39.78
2022-12-15T16:43:16.950Z,38.55
2022-12-15T16:45:48.731Z,35.40
2022-12-15T16:48:17.135Z,38.58
2022-12-15T16:50:47.139Z,36.70
2022-12-15T16:53:18.199Z,36.58
2022-12-15T16:55:53.635Z,37.38
2022-12-15T16:58:22.374Z,37.47
2022-12-15T17:00:53.788Z,36.08
2022-12-15T17:03:25.617Z,34.90
2022-12-15T17:05:56.175Z,37.30
2022-12-15T17:08:28.018Z,40.28
2022-12-15T17:10:56.223Z,35.65
2022-12-15T17:13:36.642Z,36.13
2022-12-15T17:16:12.398Z,35.97
2022-12-15T17:18:40.716Z,34.50
2022-12-15T17:21:15.670Z,35.55
2022-12-15T17:23:46.208Z,37.22
2022-12-15T17:26:27.701Z,42.80
2022-12-15T17:28:58.768Z,35.03
2022-12-15T17:31:34.623Z,35.33
2022-12-15T17:34:09.509Z,39.10
2022-12-15T17:36:38.149Z,44.50
2022-12-15T17:39:11.107Z,35.38
2022-12-15T17:44:34.314Z,39.22
2022-12-15T17:47:06.185Z,35.90
2022-12-15T17:49:37.297Z,34.28
2022-12-15T17:52:09.172Z,36.53
2022-12-15T17:54:37.331Z,35.22
2022-12-15T17:57:05.316Z,38.35
2022-12-15T17:59:33.527Z,36.67
2022-12-15T18:02:01.611Z,35.97
2022-12-15T18:04:31.352Z,36.40
2022-12-15T18:07:02.089Z,35.38
2022-12-15T18:09:31.450Z,31.88
2022-12-15T18:11:59.539Z,36.10
2022-12-15T18:14:28.596Z,34.38
2022-12-15T18:16:56.924Z,33.05
2022-12-15T18:19:28.990Z,36.20
2022-12-15T18:22:01.151Z,34.22
2022-12-15T18:24:29.289Z,33.85
2022-12-15T18:26:57.379Z,33.13
2022-12-15T18:29:25.438Z,32.85
2022-12-15T18:31:53.579Z,32.15
2022-12-15T18:34:22.867Z,30.40
2022-12-15T18:36:51.501Z,31.17
2022-12-15T18:39:23.444Z,30.80
2022-12-15T18:41:52.510Z,31.25
2022-12-15T18:44:23.818Z,31.95
2022-12-15T18:46:52.018Z,31.23
2022-12-15T18:49:21.700Z,29.17
2022-12-15T18:51:50.380Z,29.55
2022-12-15T18:54:22.898Z,28.88
2022-12-15T18:59:20.481Z,25.35
2022-12-15T19:01:49.779Z,24.77
2022-12-15T19:04:17.908Z,27.35
2022-12-15T19:06:46.262Z,28.20
2022-12-15T19:09:18.360Z,30.23
2022-12-15T19:12:17.610Z,30.98
2022-12-15T19:14:46.896Z,33.45
2022-12-15T19:17:34.184Z,28.65
2022-12-15T19:20:20.263Z,32.90
2022-12-15T19:22:49.747Z,32.97
2022-12-15T19:25:25.551Z,30.98
2022-12-15T19:27:59.173Z,28.35
2022-12-15T19:30:28.790Z,31.65
2022-12-15T19:32:57.201Z,35.08
2022-12-15T19:35:25.793Z,37.35
2022-12-15T19:37:55.452Z,33.15
2022-12-15T19:40:27.373Z,30.27
2022-12-15T19:42:57.069Z,32.22
2022-12-15T19:45:27.140Z,28.02
2022-12-15T19:47:55.420Z,27.67
2022-12-15T19:50:25.214Z,27.23
2022-12-15T19:52:55.861Z,24.98
2022-12-15T19:55:27.446Z,23.80
2022-12-15T19:57:57.107Z,23.53
2022-12-15T20:00:26.915Z,25.02
2022-12-15T20:02:56.623Z,24.55
2022-12-15T20:05:26.511Z,23.60
2022-12-15T20:07:55.391Z,20.67
2022-12-15T20:10:32.207Z,24.25
2022-12-15T20:13:03.215Z,24.02
2022-12-15T20:15:31.244Z,23.25
2022-12-15T20:17:59.272Z,20.90
2022-12-15T20:20:29.760Z,21.40
2022-12-15T20:23:02.255Z,22.10
2022-12-15T20:28:00.541Z,17.98
2022-12-15T20:30:32.712Z,22.10
2022-12-15T20:33:01.233Z,19.98
2022-12-15T20:35:31.494Z,19.63
2022-12-15T20:37:59.984Z,17.13
2022-12-15T20:40:29.969Z,18.83
2022-12-15T20:42:58.532Z,18.33
2022-12-15T20:45:27.655Z,16.55
2022-12-15T20:47:57.310Z,18.60
2022-12-15T20:50:28.932Z,18.63
2022-12-15T20:52:57.246Z,19.63
2022-12-15T20:55:25.426Z,18.35
2022-12-15T20:57:53.540Z,18.45
2022-12-15T21:00:22.050Z,17.50
2022-12-15T21:02:51.978Z,19.13
2022-12-15T21:05:23.750Z,19.33
2022-12-15T21:07:52.472Z,18.40
2022-12-15T21:10:22.249Z,18.48
2022-12-15T21:12:51.292Z,17.00
2022-12-15T21:15:21.917Z,17.27
2022-12-15T21:18:11.052Z,17.27
2022-12-15T21:20:43.258Z,16.38
2022-12-15T21:23:20.486Z,18.50
2022-12-15T21:25:48.886Z,16.30
2022-12-15T21:28:16.924Z,17.92
2022-12-15T21:30:45.620Z,16.08
2022-12-15T21:33:13.805Z,16.23
2022-12-15T21:35:46.015Z,15.35
2022-12-15T21:38:33.170Z,15.75
2022-12-15T21:41:03.646Z,16.95
2022-12-15T21:43:34.196Z,16.20
2022-12-15T21:46:04.111Z,17.35
2022-12-15T21:48:49.348Z,17.52
2022-12-15T21:51:19.286Z,17.75
2022-12-15T21:53:47.561Z,16.65
2022-12-15T21:56:17.301Z,16.23
2022-12-15T21:58:45.928Z,16.33
2022-12-15T22:01:15.654Z,16.55
2022-12-15T22:03:45.833Z,15.30
2022-12-15T22:06:20.661Z,16.48
2022-12-15T22:08:49.299Z,16.65
2022-12-15T22:11:22.072Z,16.85
2022-12-15T22:13:51.534Z,16.75
2022-12-15T22:16:20.757Z,14.98
2022-12-15T22:18:51.078Z,16.63
2022-12-15T22:21:21.484Z,14.65
2022-12-15T22:23:50.838Z,16.52
2022-12-15T22:26:22.774Z,15.32
2022-12-15T22:28:51.566Z,13.88
2022-12-15T22:31:19.814Z,14.43
2022-12-15T22:33:47.966Z,14.52
2022-12-15T22:36:15.860Z,13.45
2022-12-15T22:38:46.840Z,13.38
2022-12-15T22:41:19.931Z,12.40
2022-12-15T22:43:51.182Z,12.25
2022-12-15T22:46:21.522Z,12.48
2022-12-15T22:48:49.778Z,11.38
2022-12-15T22:51:19.787Z,12.25
2022-12-15T22:53:49.167Z,12.80
2022-12-15T22:56:25.739Z,11.27
2022-12-15T22:59:18.654Z,11.65
2022-12-15T23:01:46.907Z,10.10
2022-12-15T23:04:15.347Z,9.48
2022-12-15T23:06:43.289Z,10.60
2022-12-15T23:09:12.968Z,9.93
2022-12-15T23:11:41.296Z,10.55
2022-12-15T23:14:11.516Z,8.43
2022-12-15T23:16:38.709Z,12.48
2022-12-15T23:19:08.622Z,12.32
2022-12-15T23:21:37.952Z,11.15
2022-12-15T23:24:06.223Z,9.65
2022-12-15T23:26:35.484Z,10.05
2022-12-15T23:29:11.738Z,10.93
2022-12-15T23:31:39.969Z,10.50
2022-12-15T23:34:08.466Z,11.00
2022-12-15T23:36:36.350Z,10.82
2022-12-15T23:39:04.372Z,10.05
2022-12-15T23:41:32.970Z,10.13
2022-12-15T23:44:02.440Z,9.38
2022-12-15T23:46:30.530Z,9.88
2022-12-15T23:48:59.939Z,8.60
2022-12-15T23:51:27.808Z,10.32
2022-12-15T23:53:55.818Z,12.38
2022-12-15T23:56:25.292Z,10.73
2022-12-15T23:58:56.739Z,10.20
